ACA625 CYUL-KJFK
Flight info
| Callsign | ACA625 |
|---|---|
| Flight time | 0h 59m |
| Altitude | 38000 |
| Route | FAWNS DCT BUGSY DCT NIPPY DCT ALB DCT IGN IGN1 |
| Aircraft | A321/M-SDE3FGHIRWY/LB1 |
Departure
| Time | 2026-05-04 10:46 |
|---|---|
| Airport | Montreal / Pierre Elliott Trudeau International Airport (CYUL) |
Arrival
| Time | 2026-05-04 11:46 |
|---|---|
| Airport | John F. Kennedy International Airport (KJFK) |
| Time | Latitude | Longitude | Altitude | Speed | Heading |
|---|---|---|---|---|---|
| 2026-05-04 10:37 | 45.46300 | -73.75390 | 109 ft | 0 kts | 85° |
| 2026-05-04 10:39 | 45.46312 | -73.74983 | 110 ft | 12 kts | 88° |
| 2026-05-04 10:39 | 45.46316 | -73.74826 | 110 ft | 21 kts | 86° |
| 2026-05-04 10:39 | 45.46324 | -73.74609 | 110 ft | 22 kts | 87° |
| 2026-05-04 10:40 | 45.46331 | -73.74391 | 110 ft | 22 kts | 87° |
| 2026-05-04 10:40 | 45.46338 | -73.74177 | 110 ft | 15 kts | 86° |
| 2026-05-04 10:40 | 45.46342 | -73.74052 | 108 ft | 12 kts | 88° |
| 2026-05-04 10:40 | 45.46346 | -73.73919 | 107 ft | 14 kts | 87° |
| 2026-05-04 10:41 | 45.46354 | -73.73799 | 107 ft | 8 kts | 78° |
| 2026-05-04 10:41 | 45.46383 | -73.73724 | 108 ft | 10 kts | 44° |
| 2026-05-04 10:41 | 45.46449 | -73.73637 | 107 ft | 15 kts | 43° |
| 2026-05-04 10:41 | 45.46545 | -73.73511 | 108 ft | 20 kts | 43° |
| 2026-05-04 10:42 | 45.46648 | -73.73375 | 110 ft | 20 kts | 43° |
| 2026-05-04 10:42 | 45.46753 | -73.73237 | 110 ft | 21 kts | 43° |
| 2026-05-04 10:42 | 45.46862 | -73.73094 | 111 ft | 21 kts | 43° |
| 2026-05-04 10:42 | 45.46969 | -73.72955 | 114 ft | 20 kts | 43° |
| 2026-05-04 10:43 | 45.47071 | -73.72819 | 114 ft | 20 kts | 43° |
| 2026-05-04 10:44 | 45.47469 | -73.72179 | 126 ft | 8 kts | 183° |
| 2026-05-04 10:45 | 45.47400 | -73.72197 | 125 ft | 12 kts | 191° |
| 2026-05-04 10:45 | 45.47310 | -73.72223 | 124 ft | 13 kts | 191° |
| 2026-05-04 10:45 | 45.47237 | -73.72242 | 124 ft | 10 kts | 192° |
| 2026-05-04 10:45 | 45.47165 | -73.72305 | 121 ft | 14 kts | 223° |
| 2026-05-04 10:46 | 45.47037 | -73.72473 | 118 ft | 58 kts | 222° |
| 2026-05-04 10:46 | 45.46513 | -73.73161 | 111 ft | 142 kts | 223° |
| 2026-05-04 10:46 | 45.45696 | -73.74242 | 535 ft | 172 kts | 223° |
| 2026-05-04 10:46 | 45.44839 | -73.75369 | 1516 ft | 175 kts | 224° |
| 2026-05-04 10:47 | 45.43917 | -73.76434 | 2423 ft | 174 kts | 217° |
| 2026-05-04 10:47 | 45.42842 | -73.77294 | 3156 ft | 189 kts | 211° |
| 2026-05-04 10:47 | 45.41590 | -73.77994 | 3952 ft | 203 kts | 206° |
| 2026-05-04 10:47 | 45.40278 | -73.78867 | 4430 ft | 227 kts | 213° |
| 2026-05-04 10:49 | 45.29734 | -73.86687 | 10851 ft | 275 kts | 214° |
| 2026-05-04 10:49 | 45.28103 | -73.87897 | 11405 ft | 291 kts | 214° |
| 2026-05-04 10:50 | 45.26445 | -73.89123 | 12109 ft | 299 kts | 213° |
| 2026-05-04 10:51 | 45.13125 | -73.98932 | 17806 ft | 330 kts | 214° |
| 2026-05-04 10:52 | 45.11118 | -74.00411 | 18572 ft | 333 kts | 214° |
| 2026-05-04 10:52 | 45.09090 | -74.01902 | 19313 ft | 337 kts | 214° |
| 2026-05-04 10:52 | 45.07060 | -74.03393 | 20014 ft | 341 kts | 214° |
| 2026-05-04 10:54 | 44.90812 | -74.10729 | 24250 ft | 395 kts | 195° |
| 2026-05-04 10:54 | 44.88120 | -74.11211 | 24836 ft | 399 kts | 195° |
| 2026-05-04 10:56 | 44.68320 | -74.13553 | 28796 ft | 429 kts | 180° |
| 2026-05-04 10:56 | 44.65337 | -74.13066 | 29309 ft | 432 kts | 179° |
| 2026-05-04 10:56 | 44.62364 | -74.12547 | 29788 ft | 435 kts | 179° |
| 2026-05-04 10:57 | 44.59337 | -74.12015 | 30226 ft | 439 kts | 179° |
| 2026-05-04 10:57 | 44.56338 | -74.11493 | 30698 ft | 441 kts | 179° |
| 2026-05-04 10:57 | 44.53275 | -74.10967 | 31150 ft | 443 kts | 179° |
| 2026-05-04 10:57 | 44.50351 | -74.10468 | 31510 ft | 445 kts | 179° |
| 2026-05-04 10:58 | 44.47364 | -74.09961 | 31855 ft | 448 kts | 178° |
| 2026-05-04 10:58 | 44.44273 | -74.09438 | 32209 ft | 450 kts | 178° |
| 2026-05-04 10:58 | 44.41225 | -74.08921 | 32608 ft | 450 kts | 178° |
| 2026-05-04 10:58 | 44.38171 | -74.08404 | 33021 ft | 449 kts | 178° |
| 2026-05-04 10:59 | 44.35107 | -74.07886 | 33419 ft | 448 kts | 178° |
| 2026-05-04 10:59 | 44.32043 | -74.07370 | 33804 ft | 447 kts | 178° |
| 2026-05-04 10:59 | 44.29000 | -74.06857 | 34176 ft | 447 kts | 178° |
| 2026-05-04 10:59 | 44.25955 | -74.06346 | 34533 ft | 446 kts | 178° |
| 2026-05-04 11:00 | 44.22880 | -74.05830 | 34845 ft | 446 kts | 179° |
| 2026-05-04 11:01 | 44.01056 | -74.02199 | 36035 ft | 471 kts | 178° |
| 2026-05-04 11:02 | 43.97856 | -74.01667 | 36213 ft | 472 kts | 178° |
| 2026-05-04 11:02 | 43.94584 | -74.01120 | 36418 ft | 473 kts | 178° |
| 2026-05-04 11:05 | 43.49235 | -73.94575 | 37834 ft | 472 kts | 177° |
| 2026-05-04 11:06 | 43.42799 | -73.93381 | 37833 ft | 471 kts | 177° |
| 2026-05-04 11:06 | 43.36314 | -73.92214 | 37841 ft | 472 kts | 178° |
| 2026-05-04 11:10 | 42.91083 | -73.84251 | 37877 ft | 469 kts | 178° |
| 2026-05-04 11:12 | 42.65275 | -73.81400 | 37858 ft | 459 kts | 185° |
| 2026-05-04 11:12 | 42.62111 | -73.81408 | 37662 ft | 448 kts | 185° |
| 2026-05-04 11:12 | 42.59059 | -73.81416 | 37476 ft | 438 kts | 186° |
| 2026-05-04 11:13 | 42.56043 | -73.81426 | 37288 ft | 430 kts | 186° |
| 2026-05-04 11:13 | 42.53064 | -73.81440 | 37101 ft | 429 kts | 186° |
| 2026-05-04 11:13 | 42.50058 | -73.81457 | 36909 ft | 428 kts | 186° |
| 2026-05-04 11:13 | 42.47105 | -73.81473 | 36716 ft | 428 kts | 186° |
| 2026-05-04 11:14 | 42.38232 | -73.81512 | 36136 ft | 426 kts | 186° |
| 2026-05-04 11:16 | 42.17476 | -73.81596 | 34681 ft | 431 kts | 186° |
| 2026-05-04 11:16 | 42.14508 | -73.81606 | 34505 ft | 431 kts | 186° |
| 2026-05-04 11:16 | 42.11510 | -73.81616 | 34319 ft | 431 kts | 186° |
| 2026-05-04 11:17 | 42.08512 | -73.81696 | 34117 ft | 428 kts | 189° |
| 2026-05-04 11:17 | 42.05602 | -73.82073 | 33926 ft | 425 kts | 194° |
| 2026-05-04 11:19 | 41.87077 | -73.92221 | 31653 ft | 409 kts | 214° |
| 2026-05-04 11:19 | 41.84625 | -73.94041 | 31190 ft | 408 kts | 214° |
| 2026-05-04 11:19 | 41.82145 | -73.95876 | 30635 ft | 406 kts | 214° |
| 2026-05-04 11:19 | 41.79701 | -73.97681 | 30100 ft | 403 kts | 214° |
| 2026-05-04 11:20 | 41.77229 | -73.99501 | 29558 ft | 401 kts | 214° |
| 2026-05-04 11:20 | 41.74806 | -74.01242 | 29012 ft | 399 kts | 212° |
| 2026-05-04 11:20 | 41.72231 | -74.02637 | 28478 ft | 402 kts | 204° |
| 2026-05-04 11:20 | 41.69509 | -74.03566 | 27943 ft | 404 kts | 196° |
| 2026-05-04 11:22 | 41.50458 | -74.06539 | 24401 ft | 385 kts | 192° |
| 2026-05-04 11:22 | 41.47812 | -74.06946 | 23952 ft | 383 kts | 192° |
| 2026-05-04 11:23 | 41.45185 | -74.07349 | 23495 ft | 379 kts | 192° |
| 2026-05-04 11:23 | 41.42584 | -74.07750 | 23049 ft | 376 kts | 193° |
| 2026-05-04 11:24 | 41.27207 | -74.09444 | 20322 ft | 364 kts | 189° |
| 2026-05-04 11:25 | 41.24710 | -74.09624 | 19930 ft | 361 kts | 189° |
| 2026-05-04 11:25 | 41.22189 | -74.09811 | 19785 ft | 368 kts | 189° |
| 2026-05-04 11:25 | 41.19603 | -74.10004 | 19657 ft | 371 kts | 189° |
| 2026-05-04 11:26 | 41.14462 | -74.10380 | 19402 ft | 371 kts | 189° |
| 2026-05-04 11:27 | 40.96772 | -74.11646 | 18985 ft | 333 kts | 189° |
| 2026-05-04 11:28 | 40.94485 | -74.11814 | 18990 ft | 331 kts | 190° |
| 2026-05-04 11:28 | 40.92170 | -74.11909 | 18988 ft | 336 kts | 182° |
| 2026-05-04 11:28 | 40.89903 | -74.10973 | 18984 ft | 352 kts | 154° |
| 2026-05-04 11:28 | 40.88102 | -74.08736 | 18995 ft | 362 kts | 127° |
| 2026-05-04 11:29 | 40.86884 | -74.05861 | 19001 ft | 364 kts | 118° |
| 2026-05-04 11:29 | 40.85751 | -74.02834 | 18816 ft | 363 kts | 119° |
| 2026-05-04 11:29 | 40.84401 | -74.00105 | 18553 ft | 356 kts | 134° |
| 2026-05-04 11:29 | 40.82685 | -73.97799 | 18298 ft | 352 kts | 140° |
| 2026-05-04 11:31 | 40.70616 | -73.82353 | 16495 ft | 339 kts | 138° |
| 2026-05-04 11:33 | 40.59542 | -73.67732 | 13189 ft | 307 kts | 139° |
| 2026-05-04 11:33 | 40.58049 | -73.65772 | 12687 ft | 303 kts | 139° |
| 2026-05-04 11:33 | 40.56574 | -73.63783 | 12179 ft | 304 kts | 134° |
| 2026-05-04 11:34 | 40.55630 | -73.61317 | 11657 ft | 311 kts | 103° |
| 2026-05-04 11:34 | 40.55721 | -73.58501 | 11156 ft | 312 kts | 72° |
| 2026-05-04 11:34 | 40.56799 | -73.56087 | 10651 ft | 307 kts | 43° |
| 2026-05-04 11:34 | 40.58483 | -73.54386 | 10156 ft | 303 kts | 30° |
| 2026-05-04 11:35 | 40.60231 | -73.52869 | 9654 ft | 303 kts | 30° |
| 2026-05-04 11:35 | 40.61977 | -73.51322 | 9143 ft | 301 kts | 31° |
| 2026-05-04 11:35 | 40.63677 | -73.49785 | 8638 ft | 296 kts | 30° |
| 2026-05-04 11:35 | 40.65422 | -73.48405 | 8132 ft | 290 kts | 25° |
| 2026-05-04 11:36 | 40.67163 | -73.47144 | 7624 ft | 285 kts | 24° |
| 2026-05-04 11:36 | 40.68903 | -73.45944 | 7135 ft | 279 kts | 21° |
| 2026-05-04 11:36 | 40.70598 | -73.44865 | 6790 ft | 269 kts | 21° |
| 2026-05-04 11:36 | 40.72263 | -73.43819 | 6431 ft | 264 kts | 20° |
| 2026-05-04 11:37 | 40.73932 | -73.42775 | 6082 ft | 263 kts | 19° |
| 2026-05-04 11:37 | 40.75667 | -73.42203 | 5915 ft | 250 kts | 351° |
| 2026-05-04 11:37 | 40.77271 | -73.42821 | 5783 ft | 238 kts | 322° |
| 2026-05-04 11:37 | 40.78407 | -73.44300 | 5504 ft | 226 kts | 298° |
| 2026-05-04 11:38 | 40.79197 | -73.46052 | 5268 ft | 220 kts | 295° |
| 2026-05-04 11:38 | 40.79950 | -73.47764 | 5052 ft | 214 kts | 295° |
| 2026-05-04 11:38 | 40.80693 | -73.49429 | 4791 ft | 210 kts | 295° |
| 2026-05-04 11:38 | 40.81437 | -73.51070 | 4518 ft | 205 kts | 295° |
| 2026-05-04 11:39 | 40.82080 | -73.52697 | 4215 ft | 196 kts | 281° |
| 2026-05-04 11:39 | 40.82129 | -73.54438 | 3898 ft | 186 kts | 256° |
| 2026-05-04 11:40 | 40.79750 | -73.63017 | 3022 ft | 160 kts | 232° |
| 2026-05-04 11:41 | 40.78919 | -73.64025 | 2984 ft | 163 kts | 220° |
| 2026-05-04 11:41 | 40.77990 | -73.64882 | 3006 ft | 164 kts | 218° |
| 2026-05-04 11:41 | 40.77037 | -73.65686 | 2861 ft | 164 kts | 216° |
| 2026-05-04 11:41 | 40.76069 | -73.66466 | 2640 ft | 163 kts | 216° |
| 2026-05-04 11:42 | 40.75095 | -73.67231 | 2417 ft | 163 kts | 215° |
| 2026-05-04 11:42 | 40.74126 | -73.67986 | 2196 ft | 162 kts | 215° |
| 2026-05-04 11:42 | 40.73166 | -73.68729 | 2005 ft | 153 kts | 214° |
| 2026-05-04 11:42 | 40.72306 | -73.69385 | 1921 ft | 135 kts | 214° |
| 2026-05-04 11:43 | 40.71511 | -73.69997 | 1753 ft | 129 kts | 216° |
| 2026-05-04 11:43 | 40.70770 | -73.70570 | 1700 ft | 120 kts | 217° |
| 2026-05-04 11:43 | 40.70062 | -73.71140 | 1638 ft | 119 kts | 217° |
| 2026-05-04 11:43 | 40.69360 | -73.71723 | 1504 ft | 118 kts | 215° |
| 2026-05-04 11:44 | 40.68675 | -73.72209 | 1285 ft | 106 kts | 216° |
| 2026-05-04 11:44 | 40.68049 | -73.72723 | 1012 ft | 109 kts | 215° |
| 2026-05-04 11:44 | 40.67363 | -73.73240 | 808 ft | 115 kts | 214° |
| 2026-05-04 11:44 | 40.66675 | -73.73786 | 662 ft | 118 kts | 214° |
| 2026-05-04 11:45 | 40.65980 | -73.74333 | 449 ft | 114 kts | 213° |
| 2026-05-04 11:45 | 40.65295 | -73.74869 | 275 ft | 116 kts | 213° |
| 2026-05-04 11:45 | 40.64618 | -73.75403 | 98 ft | 111 kts | 213° |
| 2026-05-04 11:45 | 40.64006 | -73.75893 | 15 ft | 89 kts | 211° |
| 2026-05-04 11:46 | 40.63615 | -73.76197 | 15 ft | 39 kts | 211° |
| 2026-05-04 11:46 | 40.63427 | -73.76345 | 15 ft | 29 kts | 211° |
| 2026-05-04 11:46 | 40.63323 | -73.76457 | 15 ft | 12 kts | 230° |
| 2026-05-04 11:46 | 40.63268 | -73.76560 | 14 ft | 14 kts | 240° |
| 2026-05-04 11:47 | 40.63243 | -73.76622 | 13 ft | 6 kts | 244° |
| 2026-05-04 11:47 | 40.63234 | -73.76686 | 13 ft | 8 kts | 276° |
| 2026-05-04 11:47 | 40.63262 | -73.76769 | 12 ft | 11 kts | 301° |
| 2026-05-04 11:47 | 40.63299 | -73.76851 | 12 ft | 7 kts | 300° |
| 2026-05-04 11:48 | 40.63328 | -73.76915 | 12 ft | 9 kts | 300° |
| 2026-05-04 11:48 | 40.63367 | -73.77002 | 12 ft | 11 kts | 301° |
| 2026-05-04 11:48 | 40.63410 | -73.77096 | 13 ft | 12 kts | 301° |
| 2026-05-04 11:48 | 40.63456 | -73.77197 | 14 ft | 13 kts | 301° |
| 2026-05-04 11:49 | 40.63505 | -73.77304 | 15 ft | 14 kts | 300° |
| 2026-05-04 11:49 | 40.63557 | -73.77420 | 15 ft | 15 kts | 300° |
| 2026-05-04 11:49 | 40.63601 | -73.77515 | 15 ft | 8 kts | 301° |
| 2026-05-04 11:49 | 40.63627 | -73.77570 | 15 ft | 7 kts | 303° |
| 2026-05-04 11:50 | 40.63662 | -73.77635 | 15 ft | 9 kts | 305° |
| 2026-05-04 11:50 | 40.63699 | -73.77666 | 15 ft | 6 kts | 359° |
| 2026-05-04 11:50 | 40.63747 | -73.77651 | 15 ft | 7 kts | 352° |
| 2026-05-04 11:50 | 40.63791 | -73.77702 | 15 ft | 9 kts | 319° |
| 2026-05-04 11:51 | 40.63850 | -73.77754 | 15 ft | 11 kts | 325° |
| 2026-05-04 11:51 | 40.63919 | -73.77817 | 15 ft | 12 kts | 327° |
| 2026-05-04 11:51 | 40.63976 | -73.77859 | 15 ft | 7 kts | 330° |
| 2026-05-04 11:51 | 40.64025 | -73.77889 | 15 ft | 8 kts | 349° |
| 2026-05-04 11:52 | 40.64089 | -73.77906 | 15 ft | 10 kts | 337° |
| 2026-05-04 11:52 | 40.64149 | -73.77915 | 15 ft | 9 kts | 22° |
| 2026-05-04 11:52 | 40.64189 | -73.77888 | 15 ft | 3 kts | 27° |
| 2026-05-04 11:52 | 40.64203 | -73.77879 | 15 ft | 1 kts | 27° |
| 2026-05-04 11:53 | 40.64215 | -73.77871 | 15 ft | 1 kts | 27° |
| 2026-05-04 11:53 | 40.64220 | -73.77867 | 15 ft | 0 kts | 27° |